<?xml version="1.0" encoding="UTF-8" standalone="no" ?>
<gpx xmlns="http://www.topografix.com/GPX/1/1" xmlns:xsi="http://www.w3.org/2001/XMLSchema-instance" xsi:schemaLocation="http://www.topografix.com/GPX/1/1 http://www.topografix.com/GPX/1/1/gpx.xsd" version="1.1" creator="VisuGPX - https://www.visugpx.com">
  <metadata>
    <name>Autour de Moret s/ Loing</name>
    <desc><![CDATA[Saint Mammés: Entre Seine et Loing]]></desc>
  </metadata>
  <trk>
    <name><![CDATA[Track 3 51]]></name>
    <trkseg>
      <trkpt lat="48.37518" lon="2.82018">
        <ele>52</ele>
        <time>2018-03-22T09:10:11Z</time>
      </trkpt>
      <trkpt lat="48.37527" lon="2.82012">
        <ele>51</ele>
        <time>2018-03-22T09:10:21Z</time>
      </trkpt>
      <trkpt lat="48.37539" lon="2.82008">
        <ele>50</ele>
        <time>2018-03-22T09:10:29Z</time>
      </trkpt>
      <trkpt lat="48.37545" lon="2.81997">
        <ele>51</ele>
        <time>2018-03-22T09:10:35Z</time>
      </trkpt>
      <trkpt lat="48.37554" lon="2.81996">
        <ele>50</ele>
        <time>2018-03-22T09:10:41Z</time>
      </trkpt>
      <trkpt lat="48.37563" lon="2.81997">
        <ele>49</ele>
        <time>2018-03-22T09:10:47Z</time>
      </trkpt>
      <trkpt lat="48.37575" lon="2.81996">
        <ele>49</ele>
        <time>2018-03-22T09:10:55Z</time>
      </trkpt>
      <trkpt lat="48.37585" lon="2.81998">
        <ele>49</ele>
        <time>2018-03-22T09:11:03Z</time>
      </trkpt>
      <trkpt lat="48.37595" lon="2.82002">
        <ele>49</ele>
        <time>2018-03-22T09:11:11Z</time>
      </trkpt>
      <trkpt lat="48.37605" lon="2.81999">
        <ele>48</ele>
        <time>2018-03-22T09:11:19Z</time>
      </trkpt>
      <trkpt lat="48.37616" lon="2.81999">
        <ele>49</ele>
        <time>2018-03-22T09:11:31Z</time>
      </trkpt>
      <trkpt lat="48.37627" lon="2.81994">
        <ele>49</ele>
        <time>2018-03-22T09:11:39Z</time>
      </trkpt>
      <trkpt lat="48.37637" lon="2.82">
        <ele>54</ele>
        <time>2018-03-22T09:11:51Z</time>
      </trkpt>
      <trkpt lat="48.37648" lon="2.81998">
        <ele>50</ele>
        <time>2018-03-22T09:12:00Z</time>
      </trkpt>
      <trkpt lat="48.37659" lon="2.81997">
        <ele>49</ele>
        <time>2018-03-22T09:12:10Z</time>
      </trkpt>
      <trkpt lat="48.37668" lon="2.82001">
        <ele>51</ele>
        <time>2018-03-22T09:12:18Z</time>
      </trkpt>
      <trkpt lat="48.37677" lon="2.82016">
        <ele>56</ele>
        <time>2018-03-22T09:12:26Z</time>
      </trkpt>
      <trkpt lat="48.37686" lon="2.82026">
        <ele>58</ele>
        <time>2018-03-22T09:12:34Z</time>
      </trkpt>
      <trkpt lat="48.37696" lon="2.82034">
        <ele>52</ele>
        <time>2018-03-22T09:12:50Z</time>
      </trkpt>
      <trkpt lat="48.377" lon="2.8202">
        <ele>49</ele>
        <time>2018-03-22T09:12:57Z</time>
      </trkpt>
      <trkpt lat="48.37704" lon="2.82006">
        <ele>47</ele>
        <time>2018-03-22T09:13:05Z</time>
      </trkpt>
      <trkpt lat="48.37707" lon="2.81992">
        <ele>45</ele>
        <time>2018-03-22T09:13:14Z</time>
      </trkpt>
      <trkpt lat="48.37712" lon="2.81975">
        <ele>42</ele>
        <time>2018-03-22T09:13:26Z</time>
      </trkpt>
      <trkpt lat="48.37719" lon="2.81964">
        <ele>42</ele>
        <time>2018-03-22T09:13:36Z</time>
      </trkpt>
      <trkpt lat="48.3773" lon="2.81943">
        <ele>41</ele>
        <time>2018-03-22T09:13:52Z</time>
      </trkpt>
      <trkpt lat="48.37737" lon="2.81933">
        <ele>44</ele>
        <time>2018-03-22T09:14:01Z</time>
      </trkpt>
      <trkpt lat="48.37744" lon="2.81923">
        <ele>43</ele>
        <time>2018-03-22T09:14:10Z</time>
      </trkpt>
      <trkpt lat="48.37752" lon="2.81915">
        <ele>44</ele>
        <time>2018-03-22T09:14:16Z</time>
      </trkpt>
      <trkpt lat="48.37761" lon="2.81907">
        <ele>46</ele>
        <time>2018-03-22T09:14:24Z</time>
      </trkpt>
      <trkpt lat="48.37768" lon="2.81899">
        <ele>47</ele>
        <time>2018-03-22T09:14:30Z</time>
      </trkpt>
      <trkpt lat="48.37776" lon="2.81889">
        <ele>47</ele>
        <time>2018-03-22T09:14:38Z</time>
      </trkpt>
      <trkpt lat="48.37787" lon="2.81878">
        <ele>47</ele>
        <time>2018-03-22T09:14:48Z</time>
      </trkpt>
      <trkpt lat="48.37795" lon="2.8187">
        <ele>48</ele>
        <time>2018-03-22T09:14:56Z</time>
      </trkpt>
      <trkpt lat="48.37802" lon="2.81859">
        <ele>47</ele>
        <time>2018-03-22T09:15:06Z</time>
      </trkpt>
      <trkpt lat="48.3781" lon="2.81854">
        <ele>49</ele>
        <time>2018-03-22T09:15:14Z</time>
      </trkpt>
      <trkpt lat="48.3782" lon="2.81843">
        <ele>50</ele>
        <time>2018-03-22T09:15:24Z</time>
      </trkpt>
      <trkpt lat="48.3783" lon="2.81826">
        <ele>49</ele>
        <time>2018-03-22T09:15:40Z</time>
      </trkpt>
      <trkpt lat="48.37838" lon="2.81817">
        <ele>49</ele>
        <time>2018-03-22T09:15:49Z</time>
      </trkpt>
      <trkpt lat="48.37845" lon="2.81803">
        <ele>49</ele>
        <time>2018-03-22T09:16:01Z</time>
      </trkpt>
      <trkpt lat="48.37855" lon="2.81794">
        <ele>52</ele>
        <time>2018-03-22T09:16:09Z</time>
      </trkpt>
      <trkpt lat="48.37866" lon="2.8178">
        <ele>52</ele>
        <time>2018-03-22T09:16:20Z</time>
      </trkpt>
      <trkpt lat="48.37872" lon="2.81768">
        <ele>52</ele>
        <time>2018-03-22T09:16:29Z</time>
      </trkpt>
      <trkpt lat="48.37877" lon="2.81754">
        <ele>47</ele>
        <time>2018-03-22T09:16:41Z</time>
      </trkpt>
      <trkpt lat="48.37879" lon="2.8174">
        <ele>44</ele>
        <time>2018-03-22T09:16:51Z</time>
      </trkpt>
      <trkpt lat="48.37884" lon="2.81729">
        <ele>43</ele>
        <time>2018-03-22T09:16:59Z</time>
      </trkpt>
      <trkpt lat="48.37892" lon="2.8172">
        <ele>37</ele>
        <time>2018-03-22T09:17:11Z</time>
      </trkpt>
      <trkpt lat="48.37896" lon="2.81702">
        <ele>38</ele>
        <time>2018-03-22T09:17:21Z</time>
      </trkpt>
      <trkpt lat="48.37901" lon="2.81691">
        <ele>39</ele>
        <time>2018-03-22T09:17:29Z</time>
      </trkpt>
      <trkpt lat="48.37906" lon="2.81672">
        <ele>39</ele>
        <time>2018-03-22T09:17:41Z</time>
      </trkpt>
      <trkpt lat="48.3791" lon="2.81659">
        <ele>41</ele>
        <time>2018-03-22T09:17:49Z</time>
      </trkpt>
      <trkpt lat="48.37915" lon="2.81648">
        <ele>41</ele>
        <time>2018-03-22T09:17:57Z</time>
      </trkpt>
      <trkpt lat="48.37922" lon="2.81637">
        <ele>41</ele>
        <time>2018-03-22T09:18:07Z</time>
      </trkpt>
      <trkpt lat="48.37928" lon="2.81623">
        <ele>43</ele>
        <time>2018-03-22T09:18:17Z</time>
      </trkpt>
      <trkpt lat="48.37934" lon="2.81611">
        <ele>43</ele>
        <time>2018-03-22T09:18:25Z</time>
      </trkpt>
      <trkpt lat="48.3794" lon="2.81596">
        <ele>42</ele>
        <time>2018-03-22T09:18:37Z</time>
      </trkpt>
      <trkpt lat="48.37945" lon="2.81582">
        <ele>44</ele>
        <time>2018-03-22T09:18:45Z</time>
      </trkpt>
      <trkpt lat="48.37951" lon="2.81569">
        <ele>43</ele>
        <time>2018-03-22T09:18:55Z</time>
      </trkpt>
      <trkpt lat="48.37958" lon="2.8155">
        <ele>44</ele>
        <time>2018-03-22T09:19:07Z</time>
      </trkpt>
      <trkpt lat="48.37963" lon="2.81537">
        <ele>46</ele>
        <time>2018-03-22T09:19:19Z</time>
      </trkpt>
      <trkpt lat="48.3797" lon="2.81524">
        <ele>45</ele>
        <time>2018-03-22T09:19:27Z</time>
      </trkpt>
      <trkpt lat="48.37974" lon="2.81512">
        <ele>44</ele>
        <time>2018-03-22T09:19:35Z</time>
      </trkpt>
      <trkpt lat="48.37979" lon="2.81496">
        <ele>46</ele>
        <time>2018-03-22T09:19:43Z</time>
      </trkpt>
      <trkpt lat="48.37987" lon="2.81487">
        <ele>44</ele>
        <time>2018-03-22T09:19:53Z</time>
      </trkpt>
      <trkpt lat="48.37992" lon="2.81474">
        <ele>45</ele>
        <time>2018-03-22T09:20:01Z</time>
      </trkpt>
      <trkpt lat="48.37998" lon="2.81463">
        <ele>45</ele>
        <time>2018-03-22T09:20:09Z</time>
      </trkpt>
      <trkpt lat="48.38003" lon="2.81448">
        <ele>46</ele>
        <time>2018-03-22T09:20:19Z</time>
      </trkpt>
      <trkpt lat="48.3801" lon="2.81435">
        <ele>45</ele>
        <time>2018-03-22T09:20:29Z</time>
      </trkpt>
      <trkpt lat="48.38014" lon="2.81422">
        <ele>45</ele>
        <time>2018-03-22T09:20:37Z</time>
      </trkpt>
      <trkpt lat="48.38019" lon="2.81411">
        <ele>45</ele>
        <time>2018-03-22T09:20:45Z</time>
      </trkpt>
      <trkpt lat="48.38024" lon="2.81398">
        <ele>46</ele>
        <time>2018-03-22T09:20:53Z</time>
      </trkpt>
      <trkpt lat="48.38032" lon="2.81383">
        <ele>45</ele>
        <time>2018-03-22T09:21:05Z</time>
      </trkpt>
      <trkpt lat="48.3804" lon="2.81373">
        <ele>45</ele>
        <time>2018-03-22T09:21:14Z</time>
      </trkpt>
      <trkpt lat="48.38044" lon="2.81359">
        <ele>44</ele>
        <time>2018-03-22T09:21:24Z</time>
      </trkpt>
      <trkpt lat="48.38048" lon="2.81345">
        <ele>44</ele>
        <time>2018-03-22T09:21:32Z</time>
      </trkpt>
      <trkpt lat="48.38054" lon="2.81331">
        <ele>43</ele>
        <time>2018-03-22T09:21:42Z</time>
      </trkpt>
      <trkpt lat="48.3806" lon="2.81321">
        <ele>44</ele>
        <time>2018-03-22T09:21:50Z</time>
      </trkpt>
      <trkpt lat="48.38065" lon="2.81309">
        <ele>46</ele>
        <time>2018-03-22T09:22:00Z</time>
      </trkpt>
      <trkpt lat="48.38067" lon="2.81286">
        <ele>53</ele>
        <time>2018-03-22T09:22:08Z</time>
      </trkpt>
      <trkpt lat="48.38076" lon="2.81271">
        <ele>44</ele>
        <time>2018-03-22T09:22:26Z</time>
      </trkpt>
      <trkpt lat="48.38084" lon="2.81258">
        <ele>46</ele>
        <time>2018-03-22T09:22:34Z</time>
      </trkpt>
      <trkpt lat="48.38091" lon="2.81239">
        <ele>46</ele>
        <time>2018-03-22T09:22:48Z</time>
      </trkpt>
      <trkpt lat="48.38098" lon="2.81226">
        <ele>46</ele>
        <time>2018-03-22T09:22:58Z</time>
      </trkpt>
      <trkpt lat="48.38105" lon="2.81212">
        <ele>48</ele>
        <time>2018-03-22T09:23:08Z</time>
      </trkpt>
      <trkpt lat="48.3811" lon="2.812">
        <ele>47</ele>
        <time>2018-03-22T09:23:19Z</time>
      </trkpt>
      <trkpt lat="48.38116" lon="2.8119">
        <ele>48</ele>
        <time>2018-03-22T09:23:26Z</time>
      </trkpt>
      <trkpt lat="48.38123" lon="2.81178">
        <ele>46</ele>
        <time>2018-03-22T09:23:37Z</time>
      </trkpt>
      <trkpt lat="48.38127" lon="2.81166">
        <ele>46</ele>
        <time>2018-03-22T09:23:44Z</time>
      </trkpt>
      <trkpt lat="48.38133" lon="2.81156">
        <ele>45</ele>
        <time>2018-03-22T09:23:52Z</time>
      </trkpt>
      <trkpt lat="48.38138" lon="2.81144">
        <ele>44</ele>
        <time>2018-03-22T09:24:00Z</time>
      </trkpt>
      <trkpt lat="48.38142" lon="2.81129">
        <ele>45</ele>
        <time>2018-03-22T09:24:10Z</time>
      </trkpt>
      <trkpt lat="48.38154" lon="2.81109">
        <ele>46</ele>
        <time>2018-03-22T09:24:26Z</time>
      </trkpt>
      <trkpt lat="48.3816" lon="2.81099">
        <ele>46</ele>
        <time>2018-03-22T09:24:34Z</time>
      </trkpt>
      <trkpt lat="48.38165" lon="2.81085">
        <ele>45</ele>
        <time>2018-03-22T09:24:44Z</time>
      </trkpt>
      <trkpt lat="48.38172" lon="2.81075">
        <ele>45</ele>
        <time>2018-03-22T09:24:54Z</time>
      </trkpt>
      <trkpt lat="48.38183" lon="2.81062">
        <ele>47</ele>
        <time>2018-03-22T09:25:10Z</time>
      </trkpt>
      <trkpt lat="48.3819" lon="2.81053">
        <ele>46</ele>
        <time>2018-03-22T09:25:18Z</time>
      </trkpt>
      <trkpt lat="48.382" lon="2.81037">
        <ele>47</ele>
        <time>2018-03-22T09:25:32Z</time>
      </trkpt>
      <trkpt lat="48.38206" lon="2.81025">
        <ele>48</ele>
        <time>2018-03-22T09:25:41Z</time>
      </trkpt>
      <trkpt lat="48.38216" lon="2.81008">
        <ele>46</ele>
        <time>2018-03-22T09:25:59Z</time>
      </trkpt>
      <trkpt lat="48.38223" lon="2.80998">
        <ele>48</ele>
        <time>2018-03-22T09:26:07Z</time>
      </trkpt>
      <trkpt lat="48.3823" lon="2.80989">
        <ele>47</ele>
        <time>2018-03-22T09:26:15Z</time>
      </trkpt>
      <trkpt lat="48.38234" lon="2.80976">
        <ele>46</ele>
        <time>2018-03-22T09:26:25Z</time>
      </trkpt>
      <trkpt lat="48.38241" lon="2.80967">
        <ele>47</ele>
        <time>2018-03-22T09:26:33Z</time>
      </trkpt>
      <trkpt lat="48.38251" lon="2.80953">
        <ele>46</ele>
        <time>2018-03-22T09:26:45Z</time>
      </trkpt>
      <trkpt lat="48.38259" lon="2.80942">
        <ele>45</ele>
        <time>2018-03-22T09:26:55Z</time>
      </trkpt>
      <trkpt lat="48.38264" lon="2.80929">
        <ele>46</ele>
        <time>2018-03-22T09:27:05Z</time>
      </trkpt>
      <trkpt lat="48.38272" lon="2.80917">
        <ele>46</ele>
        <time>2018-03-22T09:27:15Z</time>
      </trkpt>
      <trkpt lat="48.3828" lon="2.80909">
        <ele>47</ele>
        <time>2018-03-22T09:27:23Z</time>
      </trkpt>
      <trkpt lat="48.38291" lon="2.80895">
        <ele>48</ele>
        <time>2018-03-22T09:27:35Z</time>
      </trkpt>
      <trkpt lat="48.38299" lon="2.80889">
        <ele>49</ele>
        <time>2018-03-22T09:27:41Z</time>
      </trkpt>
      <trkpt lat="48.38306" lon="2.80879">
        <ele>49</ele>
        <time>2018-03-22T09:27:49Z</time>
      </trkpt>
      <trkpt lat="48.38315" lon="2.80869">
        <ele>50</ele>
        <time>2018-03-22T09:27:57Z</time>
      </trkpt>
      <trkpt lat="48.38322" lon="2.80861">
        <ele>49</ele>
        <time>2018-03-22T09:28:05Z</time>
      </trkpt>
      <trkpt lat="48.38331" lon="2.80852">
        <ele>50</ele>
        <time>2018-03-22T09:28:13Z</time>
      </trkpt>
      <trkpt lat="48.38335" lon="2.80839">
        <ele>46</ele>
        <time>2018-03-22T09:28:23Z</time>
      </trkpt>
      <trkpt lat="48.38338" lon="2.80826">
        <ele>48</ele>
        <time>2018-03-22T09:28:39Z</time>
      </trkpt>
      <trkpt lat="48.38349" lon="2.80817">
        <ele>49</ele>
        <time>2018-03-22T09:28:49Z</time>
      </trkpt>
      <trkpt lat="48.38354" lon="2.80803">
        <ele>48</ele>
        <time>2018-03-22T09:29:03Z</time>
      </trkpt>
      <trkpt lat="48.38363" lon="2.80794">
        <ele>47</ele>
        <time>2018-03-22T09:29:13Z</time>
      </trkpt>
      <trkpt lat="48.38371" lon="2.80785">
        <ele>47</ele>
        <time>2018-03-22T09:29:21Z</time>
      </trkpt>
      <trkpt lat="48.38376" lon="2.80773">
        <ele>45</ele>
        <time>2018-03-22T09:29:31Z</time>
      </trkpt>
      <trkpt lat="48.38386" lon="2.80759">
        <ele>46</ele>
        <time>2018-03-22T09:29:43Z</time>
      </trkpt>
      <trkpt lat="48.38395" lon="2.80748">
        <ele>46</ele>
        <time>2018-03-22T09:29:53Z</time>
      </trkpt>
      <trkpt lat="48.38402" lon="2.80737">
        <ele>46</ele>
        <time>2018-03-22T09:30:02Z</time>
      </trkpt>
      <trkpt lat="48.38415" lon="2.80718">
        <ele>45</ele>
        <time>2018-03-22T09:30:18Z</time>
      </trkpt>
      <trkpt lat="48.38423" lon="2.80704">
        <ele>44</ele>
        <time>2018-03-22T09:30:30Z</time>
      </trkpt>
      <trkpt lat="48.3843" lon="2.80696">
        <ele>44</ele>
        <time>2018-03-22T09:30:38Z</time>
      </trkpt>
      <trkpt lat="48.38438" lon="2.80686">
        <ele>45</ele>
        <time>2018-03-22T09:30:46Z</time>
      </trkpt>
      <trkpt lat="48.38444" lon="2.80676">
        <ele>44</ele>
        <time>2018-03-22T09:30:54Z</time>
      </trkpt>
      <trkpt lat="48.38452" lon="2.80665">
        <ele>46</ele>
        <time>2018-03-22T09:31:02Z</time>
      </trkpt>
      <trkpt lat="48.38459" lon="2.80656">
        <ele>47</ele>
        <time>2018-03-22T09:31:10Z</time>
      </trkpt>
      <trkpt lat="48.38469" lon="2.80644">
        <ele>49</ele>
        <time>2018-03-22T09:31:20Z</time>
      </trkpt>
      <trkpt lat="48.38479" lon="2.8063">
        <ele>49</ele>
        <time>2018-03-22T09:31:32Z</time>
      </trkpt>
      <trkpt lat="48.38485" lon="2.8062">
        <ele>48</ele>
        <time>2018-03-22T09:31:40Z</time>
      </trkpt>
      <trkpt lat="48.38489" lon="2.80608">
        <ele>46</ele>
        <time>2018-03-22T09:31:52Z</time>
      </trkpt>
      <trkpt lat="48.38498" lon="2.80613">
        <ele>43</ele>
        <time>2018-03-22T09:32:50Z</time>
      </trkpt>
      <trkpt lat="48.38501" lon="2.80627">
        <ele>42</ele>
        <time>2018-03-22T09:33:03Z</time>
      </trkpt>
      <trkpt lat="48.38501" lon="2.8064">
        <ele>41</ele>
        <time>2018-03-22T09:33:17Z</time>
      </trkpt>
      <trkpt lat="48.38507" lon="2.80651">
        <ele>40</ele>
        <time>2018-03-22T09:33:28Z</time>
      </trkpt>
      <trkpt lat="48.38513" lon="2.80661">
        <ele>41</ele>
        <time>2018-03-22T09:33:38Z</time>
      </trkpt>
      <trkpt lat="48.38519" lon="2.80673">
        <ele>44</ele>
        <time>2018-03-22T09:33:48Z</time>
      </trkpt>
      <trkpt lat="48.38528" lon="2.80678">
        <ele>46</ele>
        <time>2018-03-22T09:34:06Z</time>
      </trkpt>
      <trkpt lat="48.38531" lon="2.80691">
        <ele>41</ele>
        <time>2018-03-22T09:34:24Z</time>
      </trkpt>
      <trkpt lat="48.38537" lon="2.80704">
        <ele>40</ele>
        <time>2018-03-22T09:34:36Z</time>
      </trkpt>
      <trkpt lat="48.38544" lon="2.80715">
        <ele>41</ele>
        <time>2018-03-22T09:34:46Z</time>
      </trkpt>
      <trkpt lat="48.38552" lon="2.80725">
        <ele>43</ele>
        <time>2018-03-22T09:34:56Z</time>
      </trkpt>
      <trkpt lat="48.38556" lon="2.80739">
        <ele>42</ele>
        <time>2018-03-22T09:35:07Z</time>
      </trkpt>
      <trkpt lat="48.38559" lon="2.80754">
        <ele>37</ele>
        <time>2018-03-22T09:35:19Z</time>
      </trkpt>
      <trkpt lat="48.38563" lon="2.80767">
        <ele>37</ele>
        <time>2018-03-22T09:35:29Z</time>
      </trkpt>
      <trkpt lat="48.38574" lon="2.80774">
        <ele>41</ele>
        <time>2018-03-22T09:35:37Z</time>
      </trkpt>
      <trkpt lat="48.38583" lon="2.80772">
        <ele>44</ele>
        <time>2018-03-22T09:35:47Z</time>
      </trkpt>
      <trkpt lat="48.38594" lon="2.8076">
        <ele>45</ele>
        <time>2018-03-22T09:35:59Z</time>
      </trkpt>
      <trkpt lat="48.38601" lon="2.80747">
        <ele>46</ele>
        <time>2018-03-22T09:36:12Z</time>
      </trkpt>
      <trkpt lat="48.38608" lon="2.80735">
        <ele>45</ele>
        <time>2018-03-22T09:36:21Z</time>
      </trkpt>
      <trkpt lat="48.38617" lon="2.80725">
        <ele>43</ele>
        <time>2018-03-22T09:36:29Z</time>
      </trkpt>
      <trkpt lat="48.38625" lon="2.80714">
        <ele>45</ele>
        <time>2018-03-22T09:36:39Z</time>
      </trkpt>
      <trkpt lat="48.38633" lon="2.80704">
        <ele>43</ele>
        <time>2018-03-22T09:36:47Z</time>
      </trkpt>
      <trkpt lat="48.38639" lon="2.80692">
        <ele>44</ele>
        <time>2018-03-22T09:36:57Z</time>
      </trkpt>
      <trkpt lat="48.38646" lon="2.8068">
        <ele>45</ele>
        <time>2018-03-22T09:37:07Z</time>
      </trkpt>
      <trkpt lat="48.38658" lon="2.80669">
        <ele>37</ele>
        <time>2018-03-22T09:37:19Z</time>
      </trkpt>
      <trkpt lat="48.38664" lon="2.80659">
        <ele>37</ele>
        <time>2018-03-22T09:37:27Z</time>
      </trkpt>
      <trkpt lat="48.38668" lon="2.80671">
        <ele>40</ele>
        <time>2018-03-22T09:37:59Z</time>
      </trkpt>
      <trkpt lat="48.38666" lon="2.80684">
        <ele>39</ele>
        <time>2018-03-22T09:38:12Z</time>
      </trkpt>
      <trkpt lat="48.38664" lon="2.80698">
        <ele>43</ele>
        <time>2018-03-22T09:38:26Z</time>
      </trkpt>
      <trkpt lat="48.38664" lon="2.80711">
        <ele>41</ele>
        <time>2018-03-22T09:38:45Z</time>
      </trkpt>
      <trkpt lat="48.38672" lon="2.80726">
        <ele>38</ele>
        <time>2018-03-22T09:38:56Z</time>
      </trkpt>
      <trkpt lat="48.3868" lon="2.80733">
        <ele>40</ele>
        <time>2018-03-22T09:39:07Z</time>
      </trkpt>
      <trkpt lat="48.3869" lon="2.80744">
        <ele>39</ele>
        <time>2018-03-22T09:39:16Z</time>
      </trkpt>
      <trkpt lat="48.387" lon="2.80761">
        <ele>41</ele>
        <time>2018-03-22T09:39:34Z</time>
      </trkpt>
      <trkpt lat="48.38707" lon="2.80772">
        <ele>39</ele>
        <time>2018-03-22T09:39:46Z</time>
      </trkpt>
      <trkpt lat="48.38713" lon="2.80783">
        <ele>41</ele>
        <time>2018-03-22T09:39:54Z</time>
      </trkpt>
      <trkpt lat="48.38719" lon="2.80797">
        <ele>45</ele>
        <time>2018-03-22T09:40:04Z</time>
      </trkpt>
      <trkpt lat="48.38723" lon="2.80812">
        <ele>43</ele>
        <time>2018-03-22T09:40:16Z</time>
      </trkpt>
      <trkpt lat="48.3873" lon="2.80824">
        <ele>44</ele>
        <time>2018-03-22T09:40:27Z</time>
      </trkpt>
      <trkpt lat="48.38738" lon="2.80839">
        <ele>45</ele>
        <time>2018-03-22T09:40:38Z</time>
      </trkpt>
      <trkpt lat="48.38742" lon="2.80851">
        <ele>44</ele>
        <time>2018-03-22T09:40:48Z</time>
      </trkpt>
      <trkpt lat="48.38747" lon="2.80863">
        <ele>39</ele>
        <time>2018-03-22T09:41:00Z</time>
      </trkpt>
      <trkpt lat="48.38754" lon="2.80875">
        <ele>41</ele>
        <time>2018-03-22T09:41:11Z</time>
      </trkpt>
      <trkpt lat="48.38759" lon="2.80888">
        <ele>43</ele>
        <time>2018-03-22T09:41:22Z</time>
      </trkpt>
      <trkpt lat="48.38749" lon="2.80894">
        <ele>41</ele>
        <time>2018-03-22T09:41:32Z</time>
      </trkpt>
      <trkpt lat="48.3874" lon="2.809">
        <ele>32</ele>
        <time>2018-03-22T09:41:48Z</time>
      </trkpt>
      <trkpt lat="48.38733" lon="2.80909">
        <ele>32</ele>
        <time>2018-03-22T09:41:56Z</time>
      </trkpt>
      <trkpt lat="48.38728" lon="2.80925">
        <ele>33</ele>
        <time>2018-03-22T09:42:10Z</time>
      </trkpt>
      <trkpt lat="48.38721" lon="2.80935">
        <ele>38</ele>
        <time>2018-03-22T09:42:18Z</time>
      </trkpt>
      <trkpt lat="48.38713" lon="2.80942">
        <ele>38</ele>
        <time>2018-03-22T09:42:29Z</time>
      </trkpt>
      <trkpt lat="48.38702" lon="2.80953">
        <ele>36</ele>
        <time>2018-03-22T09:42:43Z</time>
      </trkpt>
      <trkpt lat="48.38704" lon="2.80967">
        <ele>36</ele>
        <time>2018-03-22T09:42:59Z</time>
      </trkpt>
      <trkpt lat="48.38707" lon="2.8098">
        <ele>39</ele>
        <time>2018-03-22T09:43:09Z</time>
      </trkpt>
      <trkpt lat="48.38713" lon="2.8099">
        <ele>40</ele>
        <time>2018-03-22T09:43:17Z</time>
      </trkpt>
      <trkpt lat="48.38717" lon="2.81003">
        <ele>43</ele>
        <time>2018-03-22T09:43:35Z</time>
      </trkpt>
      <trkpt lat="48.38726" lon="2.81013">
        <ele>44</ele>
        <time>2018-03-22T09:43:43Z</time>
      </trkpt>
      <trkpt lat="48.38734" lon="2.81019">
        <ele>45</ele>
        <time>2018-03-22T09:44:01Z</time>
      </trkpt>
      <trkpt lat="48.38741" lon="2.81011">
        <ele>35</ele>
        <time>2018-03-22T09:44:11Z</time>
      </trkpt>
      <trkpt lat="48.38751" lon="2.81011">
        <ele>34</ele>
        <time>2018-03-22T09:44:19Z</time>
      </trkpt>
      <trkpt lat="48.3876" lon="2.81012">
        <ele>32</ele>
        <time>2018-03-22T09:44:27Z</time>
      </trkpt>
      <trkpt lat="48.38763" lon="2.80997">
        <ele>28</ele>
        <time>2018-03-22T09:44:33Z</time>
      </trkpt>
      <trkpt lat="48.38772" lon="2.80993">
        <ele>30</ele>
        <time>2018-03-22T09:44:39Z</time>
      </trkpt>
      <trkpt lat="48.3878" lon="2.80988">
        <ele>38</ele>
        <time>2018-03-22T09:44:53Z</time>
      </trkpt>
      <trkpt lat="48.38785" lon="2.81001">
        <ele>38</ele>
        <time>2018-03-22T09:45:01Z</time>
      </trkpt>
      <trkpt lat="48.38785" lon="2.81014">
        <ele>41</ele>
        <time>2018-03-22T09:45:07Z</time>
      </trkpt>
      <trkpt lat="48.38789" lon="2.81027">
        <ele>43</ele>
        <time>2018-03-22T09:45:15Z</time>
      </trkpt>
      <trkpt lat="48.38796" lon="2.81035">
        <ele>44</ele>
        <time>2018-03-22T09:45:30Z</time>
      </trkpt>
      <trkpt lat="48.38805" lon="2.81034">
        <ele>46</ele>
        <time>2018-03-22T09:45:39Z</time>
      </trkpt>
      <trkpt lat="48.38816" lon="2.81025">
        <ele>48</ele>
        <time>2018-03-22T09:45:57Z</time>
      </trkpt>
      <trkpt lat="48.38825" lon="2.81018">
        <ele>47</ele>
        <time>2018-03-22T09:46:09Z</time>
      </trkpt>
      <trkpt lat="48.38836" lon="2.81009">
        <ele>39</ele>
        <time>2018-03-22T09:46:20Z</time>
      </trkpt>
      <trkpt lat="48.38843" lon="2.81">
        <ele>39</ele>
        <time>2018-03-22T09:46:26Z</time>
      </trkpt>
      <trkpt lat="48.3885" lon="2.80992">
        <ele>41</ele>
        <time>2018-03-22T09:46:34Z</time>
      </trkpt>
      <trkpt lat="48.38859" lon="2.8099">
        <ele>38</ele>
        <time>2018-03-22T09:46:46Z</time>
      </trkpt>
      <trkpt lat="48.38869" lon="2.80984">
        <ele>41</ele>
        <time>2018-03-22T09:46:52Z</time>
      </trkpt>
      <trkpt lat="48.38874" lon="2.80973">
        <ele>43</ele>
        <time>2018-03-22T09:47:14Z</time>
      </trkpt>
      <trkpt lat="48.38883" lon="2.80965">
        <ele>41</ele>
        <time>2018-03-22T09:47:20Z</time>
      </trkpt>
      <trkpt lat="48.38893" lon="2.80966">
        <ele>40</ele>
        <time>2018-03-22T09:47:26Z</time>
      </trkpt>
      <trkpt lat="48.38907" lon="2.80968">
        <ele>42</ele>
        <time>2018-03-22T09:47:34Z</time>
      </trkpt>
      <trkpt lat="48.38917" lon="2.80953">
        <ele>38</ele>
        <time>2018-03-22T09:47:46Z</time>
      </trkpt>
      <trkpt lat="48.38933" lon="2.80942">
        <ele>30</ele>
        <time>2018-03-22T09:48:08Z</time>
      </trkpt>
      <trkpt lat="48.38949" lon="2.80944">
        <ele>32</ele>
        <time>2018-03-22T09:48:22Z</time>
      </trkpt>
      <trkpt lat="48.38954" lon="2.80924">
        <ele>33</ele>
        <time>2018-03-22T09:48:34Z</time>
      </trkpt>
      <trkpt lat="48.38974" lon="2.80916">
        <ele>37</ele>
        <time>2018-03-22T09:49:06Z</time>
      </trkpt>
      <trkpt lat="48.38984" lon="2.80912">
        <ele>45</ele>
        <time>2018-03-22T09:49:16Z</time>
      </trkpt>
      <trkpt lat="48.3899" lon="2.80922">
        <ele>42</ele>
        <time>2018-03-22T09:49:36Z</time>
      </trkpt>
      <trkpt lat="48.38997" lon="2.80931">
        <ele>41</ele>
        <time>2018-03-22T09:49:44Z</time>
      </trkpt>
      <trkpt lat="48.39006" lon="2.8095">
        <ele>39</ele>
        <time>2018-03-22T09:50:12Z</time>
      </trkpt>
      <trkpt lat="48.3901" lon="2.80965">
        <ele>44</ele>
        <time>2018-03-22T09:50:34Z</time>
      </trkpt>
      <trkpt lat="48.39011" lon="2.80979">
        <ele>40</ele>
        <time>2018-03-22T09:50:44Z</time>
      </trkpt>
      <trkpt lat="48.39018" lon="2.80989">
        <ele>40</ele>
        <time>2018-03-22T09:51:13Z</time>
      </trkpt>
      <trkpt lat="48.39024" lon="2.80999">
        <ele>40</ele>
        <time>2018-03-22T09:51:23Z</time>
      </trkpt>
      <trkpt lat="48.39028" lon="2.81013">
        <ele>42</ele>
        <time>2018-03-22T09:51:37Z</time>
      </trkpt>
      <trkpt lat="48.39033" lon="2.81025">
        <ele>41</ele>
        <time>2018-03-22T09:51:49Z</time>
      </trkpt>
      <trkpt lat="48.39039" lon="2.81035">
        <ele>42</ele>
        <time>2018-03-22T09:52:00Z</time>
      </trkpt>
      <trkpt lat="48.39047" lon="2.81043">
        <ele>43</ele>
        <time>2018-03-22T09:52:09Z</time>
      </trkpt>
      <trkpt lat="48.39053" lon="2.81054">
        <ele>41</ele>
        <time>2018-03-22T09:52:21Z</time>
      </trkpt>
      <trkpt lat="48.39058" lon="2.81067">
        <ele>38</ele>
        <time>2018-03-22T09:52:33Z</time>
      </trkpt>
      <trkpt lat="48.39064" lon="2.81081">
        <ele>40</ele>
        <time>2018-03-22T09:52:43Z</time>
      </trkpt>
      <trkpt lat="48.3907" lon="2.81093">
        <ele>37</ele>
        <time>2018-03-22T09:52:53Z</time>
      </trkpt>
      <trkpt lat="48.39077" lon="2.81102">
        <ele>38</ele>
        <time>2018-03-22T09:53:03Z</time>
      </trkpt>
      <trkpt lat="48.39086" lon="2.81106">
        <ele>39</ele>
        <time>2018-03-22T09:53:11Z</time>
      </trkpt>
      <trkpt lat="48.39088" lon="2.81119">
        <ele>35</ele>
        <time>2018-03-22T09:53:31Z</time>
      </trkpt>
      <trkpt lat="48.39091" lon="2.81133">
        <ele>35</ele>
        <time>2018-03-22T09:53:47Z</time>
      </trkpt>
      <trkpt lat="48.39095" lon="2.81146">
        <ele>34</ele>
        <time>2018-03-22T09:53:57Z</time>
      </trkpt>
      <trkpt lat="48.391" lon="2.81157">
        <ele>34</ele>
        <time>2018-03-22T09:54:15Z</time>
      </trkpt>
      <trkpt lat="48.39107" lon="2.8118">
        <ele>36</ele>
        <time>2018-03-22T09:54:39Z</time>
      </trkpt>
      <trkpt lat="48.3911" lon="2.81197">
        <ele>40</ele>
        <time>2018-03-22T09:54:45Z</time>
      </trkpt>
      <trkpt lat="48.39112" lon="2.8121">
        <ele>38</ele>
        <time>2018-03-22T09:54:55Z</time>
      </trkpt>
      <trkpt lat="48.39116" lon="2.81226">
        <ele>38</ele>
        <time>2018-03-22T09:55:04Z</time>
      </trkpt>
      <trkpt lat="48.39121" lon="2.81238">
        <ele>37</ele>
        <time>2018-03-22T09:55:16Z</time>
      </trkpt>
      <trkpt lat="48.39125" lon="2.81265">
        <ele>39</ele>
        <time>2018-03-22T09:55:28Z</time>
      </trkpt>
      <trkpt lat="48.39129" lon="2.81279">
        <ele>38</ele>
        <time>2018-03-22T09:55:38Z</time>
      </trkpt>
      <trkpt lat="48.39131" lon="2.81294">
        <ele>34</ele>
        <time>2018-03-22T09:55:48Z</time>
      </trkpt>
      <trkpt lat="48.39132" lon="2.81307">
        <ele>34</ele>
        <time>2018-03-22T09:55:57Z</time>
      </trkpt>
      <trkpt lat="48.39136" lon="2.81321">
        <ele>31</ele>
        <time>2018-03-22T09:56:12Z</time>
      </trkpt>
      <trkpt lat="48.39146" lon="2.81323">
        <ele>29</ele>
        <time>2018-03-22T09:56:22Z</time>
      </trkpt>
      <trkpt lat="48.39154" lon="2.8133">
        <ele>30</ele>
        <time>2018-03-22T09:56:32Z</time>
      </trkpt>
      <trkpt lat="48.3916" lon="2.81342">
        <ele>33</ele>
        <time>2018-03-22T09:56:42Z</time>
      </trkpt>
      <trkpt lat="48.39164" lon="2.81358">
        <ele>37</ele>
        <time>2018-03-22T09:56:54Z</time>
      </trkpt>
      <trkpt lat="48.39167" lon="2.81372">
        <ele>38</ele>
        <time>2018-03-22T09:57:14Z</time>
      </trkpt>
      <trkpt lat="48.39171" lon="2.81388">
        <ele>36</ele>
        <time>2018-03-22T09:57:26Z</time>
      </trkpt>
      <trkpt lat="48.3917" lon="2.8141">
        <ele>37</ele>
        <time>2018-03-22T09:57:34Z</time>
      </trkpt>
      <trkpt lat="48.39176" lon="2.81424">
        <ele>39</ele>
        <time>2018-03-22T09:57:42Z</time>
      </trkpt>
      <trkpt lat="48.39178" lon="2.81437">
        <ele>39</ele>
        <time>2018-03-22T09:57:48Z</time>
      </trkpt>
      <trkpt lat="48.39185" lon="2.81451">
        <ele>40</ele>
        <time>2018-03-22T09:58:00Z</time>
      </trkpt>
      <trkpt lat="48.3919" lon="2.81465">
        <ele>42</ele>
        <time>2018-03-22T09:58:10Z</time>
      </trkpt>
      <trkpt lat="48.39194" lon="2.81478">
        <ele>38</ele>
        <time>2018-03-22T09:58:56Z</time>
      </trkpt>
      <trkpt lat="48.39192" lon="2.81492">
        <ele>36</ele>
        <time>2018-03-22T09:59:02Z</time>
      </trkpt>
      <trkpt lat="48.39191" lon="2.81506">
        <ele>37</ele>
        <time>2018-03-22T09:59:08Z</time>
      </trkpt>
      <trkpt lat="48.39193" lon="2.81521">
        <ele>38</ele>
        <time>2018-03-22T09:59:16Z</time>
      </trkpt>
      <trkpt lat="48.39197" lon="2.81539">
        <ele>39</ele>
        <time>2018-03-22T09:59:28Z</time>
      </trkpt>
      <trkpt lat="48.39199" lon="2.81555">
        <ele>42</ele>
        <time>2018-03-22T09:59:36Z</time>
      </trkpt>
      <trkpt lat="48.39197" lon="2.81577">
        <ele>41</ele>
        <time>2018-03-22T09:59:45Z</time>
      </trkpt>
      <trkpt lat="48.39206" lon="2.8158">
        <ele>41</ele>
        <time>2018-03-22T09:59:57Z</time>
      </trkpt>
      <trkpt lat="48.39208" lon="2.81593">
        <ele>43</ele>
        <time>2018-03-22T10:00:07Z</time>
      </trkpt>
      <trkpt lat="48.39201" lon="2.81602">
        <ele>34</ele>
        <time>2018-03-22T10:06:42Z</time>
      </trkpt>
      <trkpt lat="48.39209" lon="2.81593">
        <ele>33</ele>
        <time>2018-03-22T10:07:46Z</time>
      </trkpt>
      <trkpt lat="48.39211" lon="2.81608">
        <ele>33</ele>
        <time>2018-03-22T10:08:26Z</time>
      </trkpt>
      <trkpt lat="48.39214" lon="2.81621">
        <ele>33</ele>
        <time>2018-03-22T10:08:38Z</time>
      </trkpt>
      <trkpt lat="48.39217" lon="2.81634">
        <ele>32</ele>
        <time>2018-03-22T10:08:50Z</time>
      </trkpt>
      <trkpt lat="48.39211" lon="2.81647">
        <ele>33</ele>
        <time>2018-03-22T10:09:01Z</time>
      </trkpt>
      <trkpt lat="48.39208" lon="2.81663">
        <ele>31</ele>
        <time>2018-03-22T10:09:12Z</time>
      </trkpt>
      <trkpt lat="48.39212" lon="2.81676">
        <ele>30</ele>
        <time>2018-03-22T10:09:26Z</time>
      </trkpt>
      <trkpt lat="48.3922" lon="2.81686">
        <ele>30</ele>
        <time>2018-03-22T10:09:38Z</time>
      </trkpt>
      <trkpt lat="48.39224" lon="2.81702">
        <ele>32</ele>
        <time>2018-03-22T10:09:50Z</time>
      </trkpt>
      <trkpt lat="48.39221" lon="2.81718">
        <ele>32</ele>
        <time>2018-03-22T10:10:04Z</time>
      </trkpt>
      <trkpt lat="48.3922" lon="2.81735">
        <ele>33</ele>
        <time>2018-03-22T10:10:15Z</time>
      </trkpt>
      <trkpt lat="48.39223" lon="2.81748">
        <ele>32</ele>
        <time>2018-03-22T10:10:26Z</time>
      </trkpt>
      <trkpt lat="48.39221" lon="2.81761">
        <ele>32</ele>
        <time>2018-03-22T10:10:35Z</time>
      </trkpt>
      <trkpt lat="48.39221" lon="2.81774">
        <ele>36</ele>
        <time>2018-03-22T10:10:45Z</time>
      </trkpt>
      <trkpt lat="48.39219" lon="2.81787">
        <ele>35</ele>
        <time>2018-03-22T10:10:56Z</time>
      </trkpt>
      <trkpt lat="48.3922" lon="2.81801">
        <ele>29</ele>
        <time>2018-03-22T10:11:07Z</time>
      </trkpt>
      <trkpt lat="48.39221" lon="2.81815">
        <ele>30</ele>
        <time>2018-03-22T10:11:17Z</time>
      </trkpt>
      <trkpt lat="48.39223" lon="2.8183">
        <ele>31</ele>
        <time>2018-03-22T10:11:27Z</time>
      </trkpt>
      <trkpt lat="48.39223" lon="2.81845">
        <ele>30</ele>
        <time>2018-03-22T10:11:39Z</time>
      </trkpt>
      <trkpt lat="48.39221" lon="2.81859">
        <ele>30</ele>
        <time>2018-03-22T10:11:49Z</time>
      </trkpt>
      <trkpt lat="48.3922" lon="2.81875">
        <ele>34</ele>
        <time>2018-03-22T10:11:57Z</time>
      </trkpt>
      <trkpt lat="48.3922" lon="2.81893">
        <ele>31</ele>
        <time>2018-03-22T10:12:13Z</time>
      </trkpt>
      <trkpt lat="48.39219" lon="2.81911">
        <ele>31</ele>
        <time>2018-03-22T10:12:25Z</time>
      </trkpt>
      <trkpt lat="48.39218" lon="2.81934">
        <ele>31</ele>
        <time>2018-03-22T10:12:41Z</time>
      </trkpt>
      <trkpt lat="48.39214" lon="2.81949">
        <ele>32</ele>
        <time>2018-03-22T10:12:51Z</time>
      </trkpt>
      <trkpt lat="48.39212" lon="2.81965">
        <ele>33</ele>
        <time>2018-03-22T10:13:03Z</time>
      </trkpt>
      <trkpt lat="48.39212" lon="2.81978">
        <ele>31</ele>
        <time>2018-03-22T10:13:15Z</time>
      </trkpt>
      <trkpt lat="48.39213" lon="2.81995">
        <ele>31</ele>
        <time>2018-03-22T10:13:25Z</time>
      </trkpt>
      <trkpt lat="48.39212" lon="2.82011">
        <ele>35</ele>
        <time>2018-03-22T10:13:37Z</time>
      </trkpt>
      <trkpt lat="48.39209" lon="2.82028">
        <ele>38</ele>
        <time>2018-03-22T10:13:47Z</time>
      </trkpt>
      <trkpt lat="48.39205" lon="2.82046">
        <ele>37</ele>
        <time>2018-03-22T10:13:57Z</time>
      </trkpt>
      <trkpt lat="48.39203" lon="2.82061">
        <ele>36</ele>
        <time>2018-03-22T10:14:05Z</time>
      </trkpt>
      <trkpt lat="48.39202" lon="2.8208">
        <ele>37</ele>
        <time>2018-03-22T10:14:13Z</time>
      </trkpt>
      <trkpt lat="48.39199" lon="2.82096">
        <ele>36</ele>
        <time>2018-03-22T10:14:23Z</time>
      </trkpt>
      <trkpt lat="48.39196" lon="2.82113">
        <ele>34</ele>
        <time>2018-03-22T10:14:31Z</time>
      </trkpt>
      <trkpt lat="48.39193" lon="2.82126">
        <ele>36</ele>
        <time>2018-03-22T10:14:39Z</time>
      </trkpt>
      <trkpt lat="48.39194" lon="2.82141">
        <ele>32</ele>
        <time>2018-03-22T10:14:53Z</time>
      </trkpt>
      <trkpt lat="48.39191" lon="2.82157">
        <ele>31</ele>
        <time>2018-03-22T10:15:01Z</time>
      </trkpt>
      <trkpt lat="48.39187" lon="2.82177">
        <ele>30</ele>
        <time>2018-03-22T10:15:11Z</time>
      </trkpt>
      <trkpt lat="48.39183" lon="2.82193">
        <ele>31</ele>
        <time>2018-03-22T10:15:19Z</time>
      </trkpt>
      <trkpt lat="48.39176" lon="2.82206">
        <ele>31</ele>
        <time>2018-03-22T10:15:31Z</time>
      </trkpt>
      <trkpt lat="48.3917" lon="2.82216">
        <ele>29</ele>
        <time>2018-03-22T10:15:41Z</time>
      </trkpt>
      <trkpt lat="48.39167" lon="2.82229">
        <ele>29</ele>
        <time>2018-03-22T10:15:47Z</time>
      </trkpt>
      <trkpt lat="48.39162" lon="2.82242">
        <ele>31</ele>
        <time>2018-03-22T10:15:55Z</time>
      </trkpt>
      <trkpt lat="48.39158" lon="2.82256">
        <ele>30</ele>
        <time>2018-03-22T10:16:03Z</time>
      </trkpt>
      <trkpt lat="48.39154" lon="2.82272">
        <ele>30</ele>
        <time>2018-03-22T10:16:14Z</time>
      </trkpt>
      <trkpt lat="48.39161" lon="2.82285">
        <ele>30</ele>
        <time>2018-03-22T10:16:28Z</time>
      </trkpt>
      <trkpt lat="48.39169" lon="2.82297">
        <ele>26</ele>
        <time>2018-03-22T10:16:42Z</time>
      </trkpt>
      <trkpt lat="48.39173" lon="2.82311">
        <ele>29</ele>
        <time>2018-03-22T10:16:54Z</time>
      </trkpt>
      <trkpt lat="48.39181" lon="2.82319">
        <ele>27</ele>
        <time>2018-03-22T10:17:04Z</time>
      </trkpt>
      <trkpt lat="48.39188" lon="2.82329">
        <ele>32</ele>
        <time>2018-03-22T10:17:16Z</time>
      </trkpt>
      <trkpt lat="48.39193" lon="2.8234">
        <ele>36</ele>
        <time>2018-03-22T10:17:26Z</time>
      </trkpt>
      <trkpt lat="48.39194" lon="2.82361">
        <ele>28</ele>
        <time>2018-03-22T10:17:48Z</time>
      </trkpt>
      <trkpt lat="48.39201" lon="2.8238">
        <ele>33</ele>
        <time>2018-03-22T10:17:58Z</time>
      </trkpt>
      <trkpt lat="48.39193" lon="2.82401">
        <ele>33</ele>
        <time>2018-03-22T10:18:16Z</time>
      </trkpt>
      <trkpt lat="48.39184" lon="2.82416">
        <ele>31</ele>
        <time>2018-03-22T10:18:28Z</time>
      </trkpt>
      <trkpt lat="48.39185" lon="2.82436">
        <ele>28</ele>
        <time>2018-03-22T10:18:50Z</time>
      </trkpt>
      <trkpt lat="48.39181" lon="2.82455">
        <ele>24</ele>
        <time>2018-03-22T10:19:04Z</time>
      </trkpt>
      <trkpt lat="48.39178" lon="2.8247">
        <ele>28</ele>
        <time>2018-03-22T10:19:16Z</time>
      </trkpt>
      <trkpt lat="48.39171" lon="2.82487">
        <ele>30</ele>
        <time>2018-03-22T10:19:28Z</time>
      </trkpt>
      <trkpt lat="48.39165" lon="2.825">
        <ele>31</ele>
        <time>2018-03-22T10:19:40Z</time>
      </trkpt>
      <trkpt lat="48.39159" lon="2.82511">
        <ele>30</ele>
        <time>2018-03-22T10:19:48Z</time>
      </trkpt>
      <trkpt lat="48.39154" lon="2.82523">
        <ele>31</ele>
        <time>2018-03-22T10:19:58Z</time>
      </trkpt>
      <trkpt lat="48.39148" lon="2.82535">
        <ele>31</ele>
        <time>2018-03-22T10:20:10Z</time>
      </trkpt>
      <trkpt lat="48.3914" lon="2.82544">
        <ele>29</ele>
        <time>2018-03-22T10:20:18Z</time>
      </trkpt>
      <trkpt lat="48.39134" lon="2.82557">
        <ele>32</ele>
        <time>2018-03-22T10:20:26Z</time>
      </trkpt>
      <trkpt lat="48.3913" lon="2.82572">
        <ele>35</ele>
        <time>2018-03-22T10:20:38Z</time>
      </trkpt>
      <trkpt lat="48.39126" lon="2.82584">
        <ele>37</ele>
        <time>2018-03-22T10:20:48Z</time>
      </trkpt>
      <trkpt lat="48.3912" lon="2.82594">
        <ele>35</ele>
        <time>2018-03-22T10:20:56Z</time>
      </trkpt>
      <trkpt lat="48.39109" lon="2.82614">
        <ele>36</ele>
        <time>2018-03-22T10:21:11Z</time>
      </trkpt>
      <trkpt lat="48.39098" lon="2.82631">
        <ele>33</ele>
        <time>2018-03-22T10:21:27Z</time>
      </trkpt>
      <trkpt lat="48.39087" lon="2.82643">
        <ele>33</ele>
        <time>2018-03-22T10:21:47Z</time>
      </trkpt>
      <trkpt lat="48.39081" lon="2.82654">
        <ele>32</ele>
        <time>2018-03-22T10:21:57Z</time>
      </trkpt>
      <trkpt lat="48.39075" lon="2.82666">
        <ele>33</ele>
        <time>2018-03-22T10:22:05Z</time>
      </trkpt>
      <trkpt lat="48.39067" lon="2.82676">
        <ele>33</ele>
        <time>2018-03-22T10:22:19Z</time>
      </trkpt>
      <trkpt lat="48.39062" lon="2.82687">
        <ele>33</ele>
        <time>2018-03-22T10:22:29Z</time>
      </trkpt>
      <trkpt lat="48.39054" lon="2.82695">
        <ele>37</ele>
        <time>2018-03-22T10:22:37Z</time>
      </trkpt>
      <trkpt lat="48.39046" lon="2.82704">
        <ele>39</ele>
        <time>2018-03-22T10:22:51Z</time>
      </trkpt>
      <trkpt lat="48.39031" lon="2.82727">
        <ele>42</ele>
        <time>2018-03-22T10:23:09Z</time>
      </trkpt>
      <trkpt lat="48.39019" lon="2.82738">
        <ele>45</ele>
        <time>2018-03-22T10:23:25Z</time>
      </trkpt>
      <trkpt lat="48.39012" lon="2.82748">
        <ele>45</ele>
        <time>2018-03-22T10:23:41Z</time>
      </trkpt>
      <trkpt lat="48.39005" lon="2.82758">
        <ele>45</ele>
        <time>2018-03-22T10:23:51Z</time>
      </trkpt>
      <trkpt lat="48.38998" lon="2.8277">
        <ele>41</ele>
        <time>2018-03-22T10:24:07Z</time>
      </trkpt>
      <trkpt lat="48.38991" lon="2.82779">
        <ele>46</ele>
        <time>2018-03-22T10:24:15Z</time>
      </trkpt>
      <trkpt lat="48.38983" lon="2.8279">
        <ele>45</ele>
        <time>2018-03-22T10:24:29Z</time>
      </trkpt>
      <trkpt lat="48.38974" lon="2.82802">
        <ele>40</ele>
        <time>2018-03-22T10:24:39Z</time>
      </trkpt>
      <trkpt lat="48.38962" lon="2.82815">
        <ele>44</ele>
        <time>2018-03-22T10:24:55Z</time>
      </trkpt>
      <trkpt lat="48.38953" lon="2.82836">
        <ele>45</ele>
        <time>2018-03-22T10:25:11Z</time>
      </trkpt>
      <trkpt lat="48.38943" lon="2.82853">
        <ele>49</ele>
        <time>2018-03-22T10:25:27Z</time>
      </trkpt>
      <trkpt lat="48.38938" lon="2.82875">
        <ele>49</ele>
        <time>2018-03-22T10:25:45Z</time>
      </trkpt>
      <trkpt lat="48.38931" lon="2.82886">
        <ele>46</ele>
        <time>2018-03-22T10:25:50Z</time>
      </trkpt>
      <trkpt lat="48.38927" lon="2.829">
        <ele>43</ele>
        <time>2018-03-22T10:25:59Z</time>
      </trkpt>
      <trkpt lat="48.38924" lon="2.82919">
        <ele>40</ele>
        <time>2018-03-22T10:26:10Z</time>
      </trkpt>
      <trkpt lat="48.38917" lon="2.82934">
        <ele>45</ele>
        <time>2018-03-22T10:26:20Z</time>
      </trkpt>
      <trkpt lat="48.3891" lon="2.82947">
        <ele>41</ele>
        <time>2018-03-22T10:26:34Z</time>
      </trkpt>
      <trkpt lat="48.38901" lon="2.82949">
        <ele>38</ele>
        <time>2018-03-22T10:26:52Z</time>
      </trkpt>
      <trkpt lat="48.38892" lon="2.82948">
        <ele>40</ele>
        <time>2018-03-22T10:27:00Z</time>
      </trkpt>
      <trkpt lat="48.38884" lon="2.82941">
        <ele>38</ele>
        <time>2018-03-22T10:27:12Z</time>
      </trkpt>
      <trkpt lat="48.38876" lon="2.82934">
        <ele>36</ele>
        <time>2018-03-22T10:27:24Z</time>
      </trkpt>
      <trkpt lat="48.38868" lon="2.82927">
        <ele>38</ele>
        <time>2018-03-22T10:27:54Z</time>
      </trkpt>
      <trkpt lat="48.38863" lon="2.82915">
        <ele>41</ele>
        <time>2018-03-22T10:28:14Z</time>
      </trkpt>
      <trkpt lat="48.38869" lon="2.82905">
        <ele>40</ele>
        <time>2018-03-22T10:28:24Z</time>
      </trkpt>
      <trkpt lat="48.38876" lon="2.82897">
        <ele>42</ele>
        <time>2018-03-22T10:28:50Z</time>
      </trkpt>
      <trkpt lat="48.38878" lon="2.82882">
        <ele>45</ele>
        <time>2018-03-22T10:29:22Z</time>
      </trkpt>
      <trkpt lat="48.38869" lon="2.82891">
        <ele>45</ele>
        <time>2018-03-22T10:29:40Z</time>
      </trkpt>
      <trkpt lat="48.38862" lon="2.82899">
        <ele>46</ele>
        <time>2018-03-22T10:29:50Z</time>
      </trkpt>
      <trkpt lat="48.38857" lon="2.8291">
        <ele>43</ele>
        <time>2018-03-22T10:29:58Z</time>
      </trkpt>
      <trkpt lat="48.38852" lon="2.82923">
        <ele>44</ele>
        <time>2018-03-22T10:30:08Z</time>
      </trkpt>
      <trkpt lat="48.38847" lon="2.82935">
        <ele>45</ele>
        <time>2018-03-22T10:30:18Z</time>
      </trkpt>
      <trkpt lat="48.38841" lon="2.8295">
        <ele>45</ele>
        <time>2018-03-22T10:30:28Z</time>
      </trkpt>
      <trkpt lat="48.38837" lon="2.82963">
        <ele>44</ele>
        <time>2018-03-22T10:30:39Z</time>
      </trkpt>
      <trkpt lat="48.38831" lon="2.82977">
        <ele>44</ele>
        <time>2018-03-22T10:30:49Z</time>
      </trkpt>
      <trkpt lat="48.38826" lon="2.82988">
        <ele>48</ele>
        <time>2018-03-22T10:30:57Z</time>
      </trkpt>
      <trkpt lat="48.38817" lon="2.83003">
        <ele>48</ele>
        <time>2018-03-22T10:31:11Z</time>
      </trkpt>
      <trkpt lat="48.38808" lon="2.83014">
        <ele>51</ele>
        <time>2018-03-22T10:31:19Z</time>
      </trkpt>
      <trkpt lat="48.38801" lon="2.83024">
        <ele>53</ele>
        <time>2018-03-22T10:31:29Z</time>
      </trkpt>
      <trkpt lat="48.388" lon="2.83039">
        <ele>48</ele>
        <time>2018-03-22T10:31:37Z</time>
      </trkpt>
      <trkpt lat="48.38791" lon="2.83049">
        <ele>45</ele>
        <time>2018-03-22T10:31:45Z</time>
      </trkpt>
      <trkpt lat="48.38785" lon="2.83059">
        <ele>48</ele>
        <time>2018-03-22T10:31:55Z</time>
      </trkpt>
      <trkpt lat="48.38776" lon="2.83078">
        <ele>48</ele>
        <time>2018-03-22T10:32:30Z</time>
      </trkpt>
      <trkpt lat="48.38766" lon="2.83098">
        <ele>49</ele>
        <time>2018-03-22T10:32:41Z</time>
      </trkpt>
      <trkpt lat="48.38756" lon="2.83115">
        <ele>50</ele>
        <time>2018-03-22T10:32:53Z</time>
      </trkpt>
      <trkpt lat="48.38747" lon="2.83134">
        <ele>51</ele>
        <time>2018-03-22T10:33:07Z</time>
      </trkpt>
      <trkpt lat="48.38738" lon="2.8315">
        <ele>47</ele>
        <time>2018-03-22T10:33:19Z</time>
      </trkpt>
      <trkpt lat="48.38727" lon="2.83138">
        <ele>45</ele>
        <time>2018-03-22T10:33:37Z</time>
      </trkpt>
      <trkpt lat="48.38712" lon="2.83119">
        <ele>48</ele>
        <time>2018-03-22T10:33:57Z</time>
      </trkpt>
      <trkpt lat="48.38699" lon="2.83106">
        <ele>48</ele>
        <time>2018-03-22T10:34:23Z</time>
      </trkpt>
      <trkpt lat="48.38684" lon="2.83096">
        <ele>52</ele>
        <time>2018-03-22T10:34:46Z</time>
      </trkpt>
      <trkpt lat="48.38676" lon="2.8308">
        <ele>53</ele>
        <time>2018-03-22T10:35:00Z</time>
      </trkpt>
      <trkpt lat="48.38666" lon="2.8306">
        <ele>52</ele>
        <time>2018-03-22T10:35:54Z</time>
      </trkpt>
      <trkpt lat="48.38653" lon="2.83057">
        <ele>50</ele>
        <time>2018-03-22T10:36:02Z</time>
      </trkpt>
      <trkpt lat="48.38638" lon="2.83045">
        <ele>49</ele>
        <time>2018-03-22T10:36:16Z</time>
      </trkpt>
      <trkpt lat="48.38624" lon="2.83036">
        <ele>54</ele>
        <time>2018-03-22T10:36:26Z</time>
      </trkpt>
      <trkpt lat="48.38618" lon="2.83022">
        <ele>55</ele>
        <time>2018-03-22T10:36:38Z</time>
      </trkpt>
      <trkpt lat="48.38611" lon="2.83014">
        <ele>60</ele>
        <time>2018-03-22T10:36:46Z</time>
      </trkpt>
      <trkpt lat="48.38605" lon="2.83002">
        <ele>61</ele>
        <time>2018-03-22T10:36:56Z</time>
      </trkpt>
      <trkpt lat="48.38594" lon="2.82993">
        <ele>62</ele>
        <time>2018-03-22T10:37:06Z</time>
      </trkpt>
      <trkpt lat="48.38585" lon="2.82994">
        <ele>60</ele>
        <time>2018-03-22T10:37:18Z</time>
      </trkpt>
      <trkpt lat="48.38578" lon="2.82985">
        <ele>62</ele>
        <time>2018-03-22T10:37:26Z</time>
      </trkpt>
      <trkpt lat="48.38568" lon="2.82995">
        <ele>65</ele>
        <time>2018-03-22T10:37:38Z</time>
      </trkpt>
      <trkpt lat="48.38564" lon="2.83007">
        <ele>66</ele>
        <time>2018-03-22T10:37:47Z</time>
      </trkpt>
      <trkpt lat="48.38564" lon="2.8302">
        <ele>63</ele>
        <time>2018-03-22T10:37:55Z</time>
      </trkpt>
      <trkpt lat="48.38567" lon="2.83007">
        <ele>60</ele>
        <time>2018-03-22T10:38:32Z</time>
      </trkpt>
      <trkpt lat="48.38574" lon="2.82999">
        <ele>53</ele>
        <time>2018-03-22T10:38:38Z</time>
      </trkpt>
      <trkpt lat="48.38577" lon="2.82985">
        <ele>54</ele>
        <time>2018-03-22T10:38:46Z</time>
      </trkpt>
      <trkpt lat="48.38575" lon="2.82971">
        <ele>55</ele>
        <time>2018-03-22T10:38:54Z</time>
      </trkpt>
      <trkpt lat="48.38578" lon="2.82958">
        <ele>54</ele>
        <time>2018-03-22T10:39:00Z</time>
      </trkpt>
      <trkpt lat="48.38584" lon="2.82939">
        <ele>54</ele>
        <time>2018-03-22T10:39:10Z</time>
      </trkpt>
      <trkpt lat="48.38588" lon="2.82927">
        <ele>58</ele>
        <time>2018-03-22T10:39:16Z</time>
      </trkpt>
      <trkpt lat="48.38588" lon="2.82913">
        <ele>60</ele>
        <time>2018-03-22T10:39:24Z</time>
      </trkpt>
      <trkpt lat="48.38585" lon="2.829">
        <ele>63</ele>
        <time>2018-03-22T10:40:01Z</time>
      </trkpt>
      <trkpt lat="48.38574" lon="2.82896">
        <ele>66</ele>
        <time>2018-03-22T10:40:13Z</time>
      </trkpt>
      <trkpt lat="48.38562" lon="2.82896">
        <ele>65</ele>
        <time>2018-03-22T10:40:23Z</time>
      </trkpt>
      <trkpt lat="48.38571" lon="2.82896">
        <ele>65</ele>
        <time>2018-03-22T10:40:41Z</time>
      </trkpt>
      <trkpt lat="48.38581" lon="2.82896">
        <ele>63</ele>
        <time>2018-03-22T10:40:51Z</time>
      </trkpt>
      <trkpt lat="48.38591" lon="2.82891">
        <ele>63</ele>
        <time>2018-03-22T10:42:38Z</time>
      </trkpt>
      <trkpt lat="48.38593" lon="2.82877">
        <ele>65</ele>
        <time>2018-03-22T10:42:43Z</time>
      </trkpt>
      <trkpt lat="48.38594" lon="2.82859">
        <ele>62</ele>
        <time>2018-03-22T10:42:59Z</time>
      </trkpt>
      <trkpt lat="48.38594" lon="2.82845">
        <ele>60</ele>
        <time>2018-03-22T10:43:09Z</time>
      </trkpt>
      <trkpt lat="48.38593" lon="2.82824">
        <ele>63</ele>
        <time>2018-03-22T10:43:23Z</time>
      </trkpt>
      <trkpt lat="48.38597" lon="2.82809">
        <ele>64</ele>
        <time>2018-03-22T10:43:33Z</time>
      </trkpt>
      <trkpt lat="48.38595" lon="2.82793">
        <ele>63</ele>
        <time>2018-03-22T10:43:47Z</time>
      </trkpt>
      <trkpt lat="48.38594" lon="2.82777">
        <ele>64</ele>
        <time>2018-03-22T10:43:57Z</time>
      </trkpt>
      <trkpt lat="48.38596" lon="2.82753">
        <ele>62</ele>
        <time>2018-03-22T10:44:13Z</time>
      </trkpt>
      <trkpt lat="48.38597" lon="2.8273">
        <ele>64</ele>
        <time>2018-03-22T10:44:29Z</time>
      </trkpt>
      <trkpt lat="48.38596" lon="2.82716">
        <ele>66</ele>
        <time>2018-03-22T10:44:36Z</time>
      </trkpt>
      <trkpt lat="48.38597" lon="2.82699">
        <ele>68</ele>
        <time>2018-03-22T10:44:44Z</time>
      </trkpt>
      <trkpt lat="48.38595" lon="2.82683">
        <ele>71</ele>
        <time>2018-03-22T10:44:54Z</time>
      </trkpt>
      <trkpt lat="48.38591" lon="2.82668">
        <ele>72</ele>
        <time>2018-03-22T10:45:04Z</time>
      </trkpt>
      <trkpt lat="48.38588" lon="2.82644">
        <ele>75</ele>
        <time>2018-03-22T10:45:19Z</time>
      </trkpt>
      <trkpt lat="48.38591" lon="2.82628">
        <ele>74</ele>
        <time>2018-03-22T10:45:26Z</time>
      </trkpt>
      <trkpt lat="48.38589" lon="2.82614">
        <ele>74</ele>
        <time>2018-03-22T10:45:36Z</time>
      </trkpt>
      <trkpt lat="48.38588" lon="2.82599">
        <ele>70</ele>
        <time>2018-03-22T10:45:46Z</time>
      </trkpt>
      <trkpt lat="48.38587" lon="2.82585">
        <ele>68</ele>
        <time>2018-03-22T10:45:54Z</time>
      </trkpt>
      <trkpt lat="48.38586" lon="2.82569">
        <ele>65</ele>
        <time>2018-03-22T10:46:10Z</time>
      </trkpt>
      <trkpt lat="48.38585" lon="2.82556">
        <ele>69</ele>
        <time>2018-03-22T10:46:14Z</time>
      </trkpt>
      <trkpt lat="48.38584" lon="2.8253">
        <ele>67</ele>
        <time>2018-03-22T10:46:32Z</time>
      </trkpt>
      <trkpt lat="48.38584" lon="2.82503">
        <ele>70</ele>
        <time>2018-03-22T10:46:44Z</time>
      </trkpt>
      <trkpt lat="48.38584" lon="2.82483">
        <ele>72</ele>
        <time>2018-03-22T10:46:56Z</time>
      </trkpt>
      <trkpt lat="48.38578" lon="2.82463">
        <ele>71</ele>
        <time>2018-03-22T10:47:13Z</time>
      </trkpt>
      <trkpt lat="48.38572" lon="2.82447">
        <ele>73</ele>
        <time>2018-03-22T10:47:20Z</time>
      </trkpt>
      <trkpt lat="48.38573" lon="2.82431">
        <ele>68</ele>
        <time>2018-03-22T10:47:28Z</time>
      </trkpt>
      <trkpt lat="48.38571" lon="2.82416">
        <ele>68</ele>
        <time>2018-03-22T10:47:36Z</time>
      </trkpt>
      <trkpt lat="48.38567" lon="2.824">
        <ele>69</ele>
        <time>2018-03-22T10:47:44Z</time>
      </trkpt>
      <trkpt lat="48.38565" lon="2.82387">
        <ele>70</ele>
        <time>2018-03-22T10:47:52Z</time>
      </trkpt>
      <trkpt lat="48.38561" lon="2.82372">
        <ele>71</ele>
        <time>2018-03-22T10:48:02Z</time>
      </trkpt>
      <trkpt lat="48.38561" lon="2.82358">
        <ele>73</ele>
        <time>2018-03-22T10:48:12Z</time>
      </trkpt>
      <trkpt lat="48.38561" lon="2.82344">
        <ele>76</ele>
        <time>2018-03-22T10:48:18Z</time>
      </trkpt>
      <trkpt lat="48.3856" lon="2.82329">
        <ele>76</ele>
        <time>2018-03-22T10:48:26Z</time>
      </trkpt>
      <trkpt lat="48.38555" lon="2.82316">
        <ele>74</ele>
        <time>2018-03-22T10:48:34Z</time>
      </trkpt>
      <trkpt lat="48.38551" lon="2.82304">
        <ele>73</ele>
        <time>2018-03-22T10:48:45Z</time>
      </trkpt>
      <trkpt lat="48.38549" lon="2.82284">
        <ele>74</ele>
        <time>2018-03-22T10:48:55Z</time>
      </trkpt>
      <trkpt lat="48.38542" lon="2.8227">
        <ele>71</ele>
        <time>2018-03-22T10:49:07Z</time>
      </trkpt>
      <trkpt lat="48.38538" lon="2.82255">
        <ele>68</ele>
        <time>2018-03-22T10:49:17Z</time>
      </trkpt>
      <trkpt lat="48.38538" lon="2.82242">
        <ele>65</ele>
        <time>2018-03-22T10:49:29Z</time>
      </trkpt>
      <trkpt lat="48.38542" lon="2.82229">
        <ele>64</ele>
        <time>2018-03-22T10:49:35Z</time>
      </trkpt>
      <trkpt lat="48.38539" lon="2.82214">
        <ele>67</ele>
        <time>2018-03-22T10:49:45Z</time>
      </trkpt>
      <trkpt lat="48.38539" lon="2.822">
        <ele>68</ele>
        <time>2018-03-22T10:49:53Z</time>
      </trkpt>
      <trkpt lat="48.38535" lon="2.82188">
        <ele>67</ele>
        <time>2018-03-22T10:50:03Z</time>
      </trkpt>
      <trkpt lat="48.38529" lon="2.82173">
        <ele>66</ele>
        <time>2018-03-22T10:50:14Z</time>
      </trkpt>
      <trkpt lat="48.38523" lon="2.8216">
        <ele>67</ele>
        <time>2018-03-22T10:50:21Z</time>
      </trkpt>
      <trkpt lat="48.38519" lon="2.82145">
        <ele>65</ele>
        <time>2018-03-22T10:50:31Z</time>
      </trkpt>
      <trkpt lat="48.38512" lon="2.82137">
        <ele>64</ele>
        <time>2018-03-22T10:50:45Z</time>
      </trkpt>
      <trkpt lat="48.38505" lon="2.82128">
        <ele>67</ele>
        <time>2018-03-22T10:50:51Z</time>
      </trkpt>
      <trkpt lat="48.38504" lon="2.82114">
        <ele>65</ele>
        <time>2018-03-22T10:50:57Z</time>
      </trkpt>
      <trkpt lat="48.38503" lon="2.82099">
        <ele>65</ele>
        <time>2018-03-22T10:51:09Z</time>
      </trkpt>
      <trkpt lat="48.38496" lon="2.82078">
        <ele>65</ele>
        <time>2018-03-22T10:51:23Z</time>
      </trkpt>
      <trkpt lat="48.38492" lon="2.82066">
        <ele>62</ele>
        <time>2018-03-22T10:51:37Z</time>
      </trkpt>
      <trkpt lat="48.38484" lon="2.82058">
        <ele>60</ele>
        <time>2018-03-22T10:51:47Z</time>
      </trkpt>
      <trkpt lat="48.38482" lon="2.82045">
        <ele>58</ele>
        <time>2018-03-22T10:51:57Z</time>
      </trkpt>
      <trkpt lat="48.38474" lon="2.8203">
        <ele>60</ele>
        <time>2018-03-22T10:52:07Z</time>
      </trkpt>
      <trkpt lat="48.38466" lon="2.82009">
        <ele>58</ele>
        <time>2018-03-22T10:52:21Z</time>
      </trkpt>
      <trkpt lat="48.38461" lon="2.81991">
        <ele>57</ele>
        <time>2018-03-22T10:52:35Z</time>
      </trkpt>
      <trkpt lat="48.38456" lon="2.8198">
        <ele>57</ele>
        <time>2018-03-22T10:52:43Z</time>
      </trkpt>
      <trkpt lat="48.38446" lon="2.81964">
        <ele>60</ele>
        <time>2018-03-22T10:52:55Z</time>
      </trkpt>
      <trkpt lat="48.38438" lon="2.81947">
        <ele>62</ele>
        <time>2018-03-22T10:53:09Z</time>
      </trkpt>
      <trkpt lat="48.38433" lon="2.81933">
        <ele>62</ele>
        <time>2018-03-22T10:53:22Z</time>
      </trkpt>
      <trkpt lat="48.38426" lon="2.81919">
        <ele>60</ele>
        <time>2018-03-22T10:53:34Z</time>
      </trkpt>
      <trkpt lat="48.38422" lon="2.81905">
        <ele>59</ele>
        <time>2018-03-22T10:53:44Z</time>
      </trkpt>
      <trkpt lat="48.38414" lon="2.81887">
        <ele>57</ele>
        <time>2018-03-22T10:53:54Z</time>
      </trkpt>
      <trkpt lat="48.38408" lon="2.81876">
        <ele>57</ele>
        <time>2018-03-22T10:54:02Z</time>
      </trkpt>
      <trkpt lat="48.384" lon="2.8186">
        <ele>55</ele>
        <time>2018-03-22T10:54:18Z</time>
      </trkpt>
      <trkpt lat="48.38394" lon="2.8185">
        <ele>57</ele>
        <time>2018-03-22T10:54:30Z</time>
      </trkpt>
      <trkpt lat="48.38389" lon="2.81839">
        <ele>57</ele>
        <time>2018-03-22T10:54:41Z</time>
      </trkpt>
      <trkpt lat="48.38382" lon="2.8183">
        <ele>56</ele>
        <time>2018-03-22T10:54:48Z</time>
      </trkpt>
      <trkpt lat="48.38377" lon="2.81818">
        <ele>57</ele>
        <time>2018-03-22T10:54:58Z</time>
      </trkpt>
      <trkpt lat="48.38372" lon="2.81804">
        <ele>59</ele>
        <time>2018-03-22T10:55:08Z</time>
      </trkpt>
      <trkpt lat="48.38364" lon="2.81795">
        <ele>56</ele>
        <time>2018-03-22T10:55:18Z</time>
      </trkpt>
      <trkpt lat="48.3836" lon="2.81783">
        <ele>56</ele>
        <time>2018-03-22T10:55:32Z</time>
      </trkpt>
      <trkpt lat="48.3836" lon="2.8177">
        <ele>54</ele>
        <time>2018-03-22T10:55:56Z</time>
      </trkpt>
      <trkpt lat="48.3835" lon="2.81774">
        <ele>50</ele>
        <time>2018-03-22T10:56:10Z</time>
      </trkpt>
      <trkpt lat="48.38342" lon="2.81784">
        <ele>49</ele>
        <time>2018-03-22T10:56:30Z</time>
      </trkpt>
      <trkpt lat="48.38327" lon="2.81788">
        <ele>49</ele>
        <time>2018-03-22T10:56:40Z</time>
      </trkpt>
      <trkpt lat="48.38319" lon="2.81779">
        <ele>55</ele>
        <time>2018-03-22T10:57:13Z</time>
      </trkpt>
      <trkpt lat="48.38311" lon="2.81768">
        <ele>59</ele>
        <time>2018-03-22T10:57:25Z</time>
      </trkpt>
      <trkpt lat="48.38303" lon="2.81749">
        <ele>57</ele>
        <time>2018-03-22T10:59:26Z</time>
      </trkpt>
      <trkpt lat="48.38298" lon="2.81736">
        <ele>59</ele>
        <time>2018-03-22T10:59:36Z</time>
      </trkpt>
      <trkpt lat="48.38291" lon="2.81723">
        <ele>63</ele>
        <time>2018-03-22T10:59:48Z</time>
      </trkpt>
      <trkpt lat="48.38285" lon="2.8171">
        <ele>63</ele>
        <time>2018-03-22T10:59:58Z</time>
      </trkpt>
      <trkpt lat="48.38278" lon="2.81695">
        <ele>63</ele>
        <time>2018-03-22T11:00:12Z</time>
      </trkpt>
      <trkpt lat="48.38271" lon="2.81685">
        <ele>63</ele>
        <time>2018-03-22T11:00:20Z</time>
      </trkpt>
      <trkpt lat="48.38265" lon="2.81673">
        <ele>61</ele>
        <time>2018-03-22T11:00:32Z</time>
      </trkpt>
      <trkpt lat="48.3826" lon="2.8166">
        <ele>61</ele>
        <time>2018-03-22T11:00:42Z</time>
      </trkpt>
      <trkpt lat="48.38252" lon="2.81647">
        <ele>62</ele>
        <time>2018-03-22T11:00:52Z</time>
      </trkpt>
      <trkpt lat="48.38245" lon="2.81636">
        <ele>63</ele>
        <time>2018-03-22T11:01:02Z</time>
      </trkpt>
      <trkpt lat="48.38235" lon="2.81626">
        <ele>61</ele>
        <time>2018-03-22T11:01:14Z</time>
      </trkpt>
      <trkpt lat="48.38226" lon="2.81622">
        <ele>61</ele>
        <time>2018-03-22T11:01:24Z</time>
      </trkpt>
      <trkpt lat="48.38216" lon="2.81628">
        <ele>58</ele>
        <time>2018-03-22T11:01:32Z</time>
      </trkpt>
      <trkpt lat="48.38209" lon="2.81638">
        <ele>57</ele>
        <time>2018-03-22T11:01:40Z</time>
      </trkpt>
      <trkpt lat="48.38217" lon="2.8163">
        <ele>57</ele>
        <time>2018-03-22T11:02:08Z</time>
      </trkpt>
      <trkpt lat="48.38218" lon="2.81616">
        <ele>60</ele>
        <time>2018-03-22T11:02:19Z</time>
      </trkpt>
      <trkpt lat="48.38215" lon="2.81601">
        <ele>60</ele>
        <time>2018-03-22T11:02:31Z</time>
      </trkpt>
      <trkpt lat="48.3821" lon="2.81589">
        <ele>61</ele>
        <time>2018-03-22T11:02:41Z</time>
      </trkpt>
      <trkpt lat="48.38203" lon="2.8158">
        <ele>61</ele>
        <time>2018-03-22T11:02:49Z</time>
      </trkpt>
      <trkpt lat="48.38196" lon="2.8157">
        <ele>61</ele>
        <time>2018-03-22T11:03:01Z</time>
      </trkpt>
      <trkpt lat="48.38188" lon="2.81554">
        <ele>63</ele>
        <time>2018-03-22T11:03:13Z</time>
      </trkpt>
      <trkpt lat="48.38181" lon="2.81545">
        <ele>62</ele>
        <time>2018-03-22T11:03:23Z</time>
      </trkpt>
      <trkpt lat="48.38172" lon="2.81538">
        <ele>57</ele>
        <time>2018-03-22T11:03:35Z</time>
      </trkpt>
      <trkpt lat="48.3816" lon="2.81523">
        <ele>55</ele>
        <time>2018-03-22T11:03:51Z</time>
      </trkpt>
      <trkpt lat="48.38154" lon="2.8151">
        <ele>53</ele>
        <time>2018-03-22T11:04:01Z</time>
      </trkpt>
      <trkpt lat="48.38145" lon="2.815">
        <ele>50</ele>
        <time>2018-03-22T11:04:15Z</time>
      </trkpt>
      <trkpt lat="48.38138" lon="2.81485">
        <ele>47</ele>
        <time>2018-03-22T11:04:29Z</time>
      </trkpt>
      <trkpt lat="48.38132" lon="2.81473">
        <ele>44</ele>
        <time>2018-03-22T11:04:41Z</time>
      </trkpt>
      <trkpt lat="48.38125" lon="2.81464">
        <ele>50</ele>
        <time>2018-03-22T11:04:45Z</time>
      </trkpt>
      <trkpt lat="48.38117" lon="2.81451">
        <ele>49</ele>
        <time>2018-03-22T11:04:57Z</time>
      </trkpt>
      <trkpt lat="48.38109" lon="2.81436">
        <ele>45</ele>
        <time>2018-03-22T11:05:14Z</time>
      </trkpt>
      <trkpt lat="48.38102" lon="2.81424">
        <ele>47</ele>
        <time>2018-03-22T11:05:22Z</time>
      </trkpt>
      <trkpt lat="48.38095" lon="2.81414">
        <ele>47</ele>
        <time>2018-03-22T11:05:32Z</time>
      </trkpt>
      <trkpt lat="48.38086" lon="2.81406">
        <ele>49</ele>
        <time>2018-03-22T11:05:42Z</time>
      </trkpt>
      <trkpt lat="48.38076" lon="2.81412">
        <ele>44</ele>
        <time>2018-03-22T11:05:54Z</time>
      </trkpt>
      <trkpt lat="48.38068" lon="2.81418">
        <ele>42</ele>
        <time>2018-03-22T11:06:05Z</time>
      </trkpt>
      <trkpt lat="48.38059" lon="2.81427">
        <ele>44</ele>
        <time>2018-03-22T11:06:12Z</time>
      </trkpt>
      <trkpt lat="48.38052" lon="2.81436">
        <ele>45</ele>
        <time>2018-03-22T11:06:20Z</time>
      </trkpt>
      <trkpt lat="48.38044" lon="2.81444">
        <ele>46</ele>
        <time>2018-03-22T11:06:30Z</time>
      </trkpt>
      <trkpt lat="48.38037" lon="2.8146">
        <ele>46</ele>
        <time>2018-03-22T11:06:44Z</time>
      </trkpt>
      <trkpt lat="48.3803" lon="2.81479">
        <ele>42</ele>
        <time>2018-03-22T11:07:02Z</time>
      </trkpt>
      <trkpt lat="48.38025" lon="2.81492">
        <ele>41</ele>
        <time>2018-03-22T11:07:14Z</time>
      </trkpt>
      <trkpt lat="48.3802" lon="2.81503">
        <ele>39</ele>
        <time>2018-03-22T11:07:26Z</time>
      </trkpt>
      <trkpt lat="48.38015" lon="2.81514">
        <ele>39</ele>
        <time>2018-03-22T11:07:40Z</time>
      </trkpt>
      <trkpt lat="48.3801" lon="2.81525">
        <ele>39</ele>
        <time>2018-03-22T11:07:50Z</time>
      </trkpt>
      <trkpt lat="48.37994" lon="2.81542">
        <ele>44</ele>
        <time>2018-03-22T11:08:03Z</time>
      </trkpt>
      <trkpt lat="48.3799" lon="2.81554">
        <ele>43</ele>
        <time>2018-03-22T11:08:11Z</time>
      </trkpt>
      <trkpt lat="48.37984" lon="2.81565">
        <ele>44</ele>
        <time>2018-03-22T11:08:21Z</time>
      </trkpt>
      <trkpt lat="48.37978" lon="2.81578">
        <ele>45</ele>
        <time>2018-03-22T11:08:29Z</time>
      </trkpt>
      <trkpt lat="48.37973" lon="2.8159">
        <ele>43</ele>
        <time>2018-03-22T11:08:39Z</time>
      </trkpt>
      <trkpt lat="48.37968" lon="2.81604">
        <ele>47</ele>
        <time>2018-03-22T11:08:51Z</time>
      </trkpt>
      <trkpt lat="48.37963" lon="2.81617">
        <ele>40</ele>
        <time>2018-03-22T11:09:01Z</time>
      </trkpt>
      <trkpt lat="48.37957" lon="2.81631">
        <ele>42</ele>
        <time>2018-03-22T11:09:13Z</time>
      </trkpt>
      <trkpt lat="48.37953" lon="2.81643">
        <ele>39</ele>
        <time>2018-03-22T11:09:23Z</time>
      </trkpt>
      <trkpt lat="48.37952" lon="2.81657">
        <ele>39</ele>
        <time>2018-03-22T11:09:31Z</time>
      </trkpt>
      <trkpt lat="48.37942" lon="2.8166">
        <ele>42</ele>
        <time>2018-03-22T11:09:43Z</time>
      </trkpt>
      <trkpt lat="48.37934" lon="2.81669">
        <ele>43</ele>
        <time>2018-03-22T11:09:51Z</time>
      </trkpt>
      <trkpt lat="48.37927" lon="2.81679">
        <ele>42</ele>
        <time>2018-03-22T11:09:59Z</time>
      </trkpt>
      <trkpt lat="48.37923" lon="2.81692">
        <ele>41</ele>
        <time>2018-03-22T11:10:07Z</time>
      </trkpt>
      <trkpt lat="48.37916" lon="2.81706">
        <ele>43</ele>
        <time>2018-03-22T11:10:17Z</time>
      </trkpt>
      <trkpt lat="48.37909" lon="2.81727">
        <ele>45</ele>
        <time>2018-03-22T11:10:31Z</time>
      </trkpt>
      <trkpt lat="48.37904" lon="2.81738">
        <ele>44</ele>
        <time>2018-03-22T11:10:39Z</time>
      </trkpt>
      <trkpt lat="48.37899" lon="2.81749">
        <ele>43</ele>
        <time>2018-03-22T11:10:47Z</time>
      </trkpt>
      <trkpt lat="48.37893" lon="2.8176">
        <ele>44</ele>
        <time>2018-03-22T11:10:55Z</time>
      </trkpt>
      <trkpt lat="48.37889" lon="2.81772">
        <ele>42</ele>
        <time>2018-03-22T11:11:03Z</time>
      </trkpt>
      <trkpt lat="48.37881" lon="2.81788">
        <ele>43</ele>
        <time>2018-03-22T11:11:13Z</time>
      </trkpt>
      <trkpt lat="48.37873" lon="2.81803">
        <ele>43</ele>
        <time>2018-03-22T11:11:22Z</time>
      </trkpt>
      <trkpt lat="48.37866" lon="2.8182">
        <ele>44</ele>
        <time>2018-03-22T11:11:32Z</time>
      </trkpt>
      <trkpt lat="48.37862" lon="2.81835">
        <ele>42</ele>
        <time>2018-03-22T11:11:44Z</time>
      </trkpt>
      <trkpt lat="48.37855" lon="2.81847">
        <ele>46</ele>
        <time>2018-03-22T11:11:50Z</time>
      </trkpt>
      <trkpt lat="48.37851" lon="2.81861">
        <ele>41</ele>
        <time>2018-03-22T11:12:02Z</time>
      </trkpt>
      <trkpt lat="48.37845" lon="2.81871">
        <ele>41</ele>
        <time>2018-03-22T11:12:10Z</time>
      </trkpt>
      <trkpt lat="48.37838" lon="2.81883">
        <ele>40</ele>
        <time>2018-03-22T11:12:20Z</time>
      </trkpt>
      <trkpt lat="48.37829" lon="2.81893">
        <ele>39</ele>
        <time>2018-03-22T11:12:30Z</time>
      </trkpt>
      <trkpt lat="48.37821" lon="2.81905">
        <ele>40</ele>
        <time>2018-03-22T11:12:38Z</time>
      </trkpt>
      <trkpt lat="48.37818" lon="2.81919">
        <ele>44</ele>
        <time>2018-03-22T11:12:44Z</time>
      </trkpt>
      <trkpt lat="48.37812" lon="2.81931">
        <ele>44</ele>
        <time>2018-03-22T11:12:52Z</time>
      </trkpt>
      <trkpt lat="48.37804" lon="2.81942">
        <ele>43</ele>
        <time>2018-03-22T11:13:02Z</time>
      </trkpt>
      <trkpt lat="48.37797" lon="2.81957">
        <ele>43</ele>
        <time>2018-03-22T11:13:12Z</time>
      </trkpt>
      <trkpt lat="48.37789" lon="2.81971">
        <ele>41</ele>
        <time>2018-03-22T11:13:24Z</time>
      </trkpt>
      <trkpt lat="48.3778" lon="2.81986">
        <ele>43</ele>
        <time>2018-03-22T11:13:34Z</time>
      </trkpt>
      <trkpt lat="48.3777" lon="2.82006">
        <ele>40</ele>
        <time>2018-03-22T11:13:48Z</time>
      </trkpt>
      <trkpt lat="48.37762" lon="2.82016">
        <ele>40</ele>
        <time>2018-03-22T11:13:56Z</time>
      </trkpt>
      <trkpt lat="48.37755" lon="2.82029">
        <ele>42</ele>
        <time>2018-03-22T11:14:04Z</time>
      </trkpt>
      <trkpt lat="48.37747" lon="2.82041">
        <ele>41</ele>
        <time>2018-03-22T11:14:15Z</time>
      </trkpt>
      <trkpt lat="48.37736" lon="2.82045">
        <ele>41</ele>
        <time>2018-03-22T11:14:23Z</time>
      </trkpt>
      <trkpt lat="48.37726" lon="2.82043">
        <ele>42</ele>
        <time>2018-03-22T11:14:31Z</time>
      </trkpt>
      <trkpt lat="48.37715" lon="2.82037">
        <ele>45</ele>
        <time>2018-03-22T11:14:41Z</time>
      </trkpt>
      <trkpt lat="48.37708" lon="2.82029">
        <ele>46</ele>
        <time>2018-03-22T11:14:49Z</time>
      </trkpt>
      <trkpt lat="48.37699" lon="2.82016">
        <ele>45</ele>
        <time>2018-03-22T11:15:02Z</time>
      </trkpt>
      <trkpt lat="48.3769" lon="2.82005">
        <ele>47</ele>
        <time>2018-03-22T11:15:11Z</time>
      </trkpt>
      <trkpt lat="48.37682" lon="2.81993">
        <ele>50</ele>
        <time>2018-03-22T11:15:19Z</time>
      </trkpt>
      <trkpt lat="48.37672" lon="2.81989">
        <ele>49</ele>
        <time>2018-03-22T11:15:29Z</time>
      </trkpt>
      <trkpt lat="48.37661" lon="2.8199">
        <ele>49</ele>
        <time>2018-03-22T11:15:39Z</time>
      </trkpt>
      <trkpt lat="48.37647" lon="2.81988">
        <ele>49</ele>
        <time>2018-03-22T11:15:49Z</time>
      </trkpt>
      <trkpt lat="48.37637" lon="2.8199">
        <ele>48</ele>
        <time>2018-03-22T11:15:55Z</time>
      </trkpt>
      <trkpt lat="48.37627" lon="2.81992">
        <ele>47</ele>
        <time>2018-03-22T11:16:03Z</time>
      </trkpt>
      <trkpt lat="48.37618" lon="2.81994">
        <ele>44</ele>
        <time>2018-03-22T11:16:11Z</time>
      </trkpt>
      <trkpt lat="48.37607" lon="2.81995">
        <ele>43</ele>
        <time>2018-03-22T11:16:23Z</time>
      </trkpt>
      <trkpt lat="48.37597" lon="2.81997">
        <ele>42</ele>
        <time>2018-03-22T11:16:33Z</time>
      </trkpt>
      <trkpt lat="48.37587" lon="2.82003">
        <ele>44</ele>
        <time>2018-03-22T11:16:43Z</time>
      </trkpt>
      <trkpt lat="48.37583" lon="2.82018">
        <ele>45</ele>
        <time>2018-03-22T11:16:54Z</time>
      </trkpt>
      <trkpt lat="48.37573" lon="2.82017">
        <ele>44</ele>
        <time>2018-03-22T11:17:03Z</time>
      </trkpt>
      <trkpt lat="48.37565" lon="2.82012">
        <ele>43</ele>
        <time>2018-03-22T11:17:14Z</time>
      </trkpt>
      <trkpt lat="48.37553" lon="2.8201">
        <ele>43</ele>
        <time>2018-03-22T11:17:26Z</time>
      </trkpt>
      <trkpt lat="48.37542" lon="2.82011">
        <ele>42</ele>
        <time>2018-03-22T11:17:36Z</time>
      </trkpt>
      <trkpt lat="48.37533" lon="2.82012">
        <ele>42</ele>
        <time>2018-03-22T11:17:44Z</time>
      </trkpt>
      <trkpt lat="48.37524" lon="2.82013">
        <ele>42</ele>
        <time>2018-03-22T11:17:52Z</time>
      </trkpt>
      <trkpt lat="48.37515" lon="2.82018">
        <ele>41</ele>
        <time>2018-03-22T11:18:02Z</time>
      </trkpt>
      <trkpt lat="48.3751" lon="2.82019">
        <ele>41</ele>
        <time>2018-03-22T11:18:06Z</time>
      </trkpt>
    </trkseg>
  </trk>
</gpx>